Time;durP1;ratioP1;P1;durP2;ratioP2;P2;SDS_P1;SDS_P2;PMS_P1;PMS_P2;Temp;Humidity;BMP_temperature;BMP_pressure;BME280_temperature;BME280_humidity;BME280_pressure;Samples;Min_cycle;Max_cycle;Signal;HPM_P1;HPM_P2
2021/09/21 00:01:14;;;;;;;12.27;11.27;;;13.20;99.90;;;14.03;81.46;98602.00;5183877;28;20209;-57
2021/09/21 00:03:47;;;;;;;11.45;10.45;;;13.20;99.90;;;14.09;81.40;98603.22;5183478;28;20230;-57
2021/09/21 00:06:20;;;;;;;12.32;11.30;;;13.30;99.90;;;14.12;81.86;98607.66;5185683;28;20599;-58
2021/09/21 00:08:55;;;;;;;11.73;10.65;;;13.30;99.90;;;14.11;80.33;98601.63;5183819;28;20217;-55
2021/09/21 00:11:28;;;;;;;11.95;10.95;;;13.30;99.90;;;14.13;80.84;98597.44;5186405;28;20575;-56
2021/09/21 00:14:02;;;;;;;12.25;11.18;;;13.30;99.90;;;14.11;81.27;98596.50;5186429;28;20490;-58
2021/09/21 00:16:35;;;;;;;12.18;11.15;;;13.30;99.90;;;14.14;79.73;98593.22;5184257;28;20206;-56
2021/09/21 00:19:08;;;;;;;11.38;10.38;;;13.30;99.90;;;14.04;80.59;98599.50;5183769;28;20202;-60
2021/09/21 00:21:41;;;;;;;11.73;10.75;;;13.20;99.90;;;13.97;81.36;98598.28;5182900;28;20609;-54
2021/09/21 00:24:15;;;;;;;12.07;10.88;;;13.10;99.90;;;13.98;81.53;98594.91;5185179;28;20764;-59
2021/09/21 00:26:48;;;;;;;11.50;10.60;;;13.10;99.90;;;13.99;80.54;98590.66;5182658;28;20244;-59
2021/09/21 00:29:22;;;;;;;12.75;11.52;;;13.10;99.90;;;13.97;80.35;98595.72;5184871;28;20285;-57
2021/09/21 00:31:59;;;;;;;11.27;10.27;;;13.10;99.90;;;13.89;79.73;98599.56;5181866;28;20293;-55
2021/09/21 00:34:38;;;;;;;11.65;10.75;;;13.00;99.90;;;13.84;81.07;98607.81;5183859;28;20301;-60
2021/09/21 00:37:13;;;;;;;11.23;10.23;;;13.00;99.90;;;13.87;80.88;98601.13;5184718;28;20223;-55
2021/09/21 00:39:48;;;;;;;11.98;10.88;;;13.00;99.90;;;13.89;79.68;98612.41;5185902;28;20202;-60
2021/09/21 00:42:28;;;;;;;11.23;10.32;;;13.00;99.90;;;13.83;80.42;98606.91;5185253;28;20220;-57
2021/09/21 00:45:05;;;;;;;12.23;11.23;;;13.00;99.90;;;13.75;80.61;98610.75;5180456;28;20206;-58
2021/09/21 00:47:38;;;;;;;12.43;11.35;;;12.90;99.90;;;13.74;81.21;98615.00;5183551;28;20309;-61
2021/09/21 00:50:12;;;;;;;11.95;10.95;;;12.90;99.90;;;13.74;81.77;98624.41;5185565;28;20205;-57
2021/09/21 00:52:45;;;;;;;12.63;11.52;;;12.90;99.90;;;13.77;80.61;98618.53;5184149;28;20310;-55
2021/09/21 00:55:20;;;;;;;12.55;11.52;;;12.90;99.90;;;13.74;81.03;98615.00;5186692;28;20576;-57
2021/09/21 00:57:53;;;;;;;11.90;10.90;;;12.90;99.90;;;13.74;80.42;98615.00;5183429;28;20265;-56
2021/09/21 01:00:26;;;;;;;12.15;11.15;;;12.90;99.90;;;13.90;78.65;98618.41;5185071;28;20213;-59
2021/09/21 01:02:59;;;;;;;13.02;11.90;;;13.00;99.90;;;13.79;79.60;98611.78;5184089;28;20337;-57
2021/09/21 01:05:35;;;;;;;12.70;11.68;;;12.90;99.90;;;13.71;79.45;98608.81;5184820;28;20298;-56
2021/09/21 01:08:08;;;;;;;13.25;12.05;;;12.90;99.90;;;13.60;80.31;98615.00;5183490;28;20353;-55
2021/09/21 01:10:42;;;;;;;13.05;11.85;;;12.80;99.90;;;13.68;80.75;98616.34;5185129;28;20245;-56
2021/09/21 01:13:15;;;;;;;13.07;11.82;;;12.90;99.90;;;13.66;81.21;98605.09;5177896;28;20658;-57
2021/09/21 01:15:50;;;;;;;13.63;12.40;;;12.90;99.90;;;13.63;79.34;98612.63;5184134;28;20290;-58
2021/09/21 01:18:23;;;;;;;13.70;12.50;;;12.80;99.90;;;13.64;80.15;98617.81;5183790;28;20223;-58
2021/09/21 01:21:03;;;;;;;12.60;11.60;;;12.90;99.90;;;13.67;81.13;98612.84;5184975;28;20209;-59
2021/09/21 01:23:49;;;;;;;13.25;12.13;;;12.90;99.90;;;13.67;81.72;98601.69;5183741;28;20564;-60
2021/09/21 01:26:24;;;;;;;12.70;11.50;;;12.90;99.90;;;13.71;81.71;98603.66;5182889;28;20209;-59
2021/09/21 01:28:58;;;;;;;12.48;11.48;;;13.00;99.90;;;13.70;82.08;98609.59;5182233;28;20213;-57
2021/09/21 01:31:31;;;;;;;11.85;10.85;;;13.00;99.90;;;13.71;81.74;98614.81;5184557;28;20199;-57
2021/09/21 01:34:04;;;;;;;13.35;12.10;;;12.90;99.90;;;13.70;81.15;98612.16;5180542;28;20227;-57
2021/09/21 01:36:37;;;;;;;13.07;11.98;;;12.90;99.90;;;13.67;81.20;98606.84;5179591;28;20728;-56
2021/09/21 01:39:12;;;;;;;13.93;12.63;;;12.90;99.90;;;13.71;80.89;98619.97;5184021;28;20195;-60
2021/09/21 01:41:46;;;;;;;12.85;11.77;;;12.90;99.90;;;13.66;81.88;98610.22;5182126;28;20205;-59
2021/09/21 01:44:20;;;;;;;13.50;12.40;;;12.90;99.90;;;13.65;82.12;98609.34;5178972;28;20293;-58
2021/09/21 01:46:53;;;;;;;13.98;12.80;;;12.90;99.90;;;13.71;82.61;98616.50;5184796;28;20585;-55
2021/09/21 01:49:33;;;;;;;13.02;11.82;;;13.00;99.90;;;13.68;80.95;98624.94;5183111;28;20249;-54
2021/09/21 01:52:11;;;;;;;12.45;11.45;;;12.90;99.90;;;13.72;80.52;98633.69;5183748;28;20286;-58
2021/09/21 01:55:01;;;;;;;11.63;10.70;;;12.90;99.90;;;13.71;81.41;98629.34;5183671;28;20226;-56
2021/09/21 02:00:25;;;;;;;13.57;12.27;;;12.90;99.90;;;13.74;81.19;98622.69;5183840;28;20208;-61
2021/09/21 02:02:58;;;;;;;12.82;11.75;;;12.90;99.90;;;13.73;81.54;98625.16;5183413;28;20194;-55
2021/09/21 02:05:31;;;;;;;12.30;11.30;;;13.00;99.90;;;13.69;81.79;98625.81;5182909;28;20205;-58
2021/09/21 02:08:05;;;;;;;12.52;11.25;;;12.80;99.90;;;13.72;80.34;98618.28;5183694;28;20222;-56
2021/09/21 02:10:40;;;;;;;12.27;11.27;;;12.80;99.90;;;13.59;80.64;98618.34;5184292;28;20200;-58
2021/09/21 02:13:13;;;;;;;12.50;11.45;;;12.70;99.90;;;13.55;80.94;98621.56;5181339;28;20230;-55
2021/09/21 02:15:46;;;;;;;12.65;11.65;;;12.70;99.90;;;13.59;80.50;98629.53;5183607;28;20298;-60
2021/09/21 02:18:19;;;;;;;12.70;11.68;;;12.80;99.90;;;13.64;81.40;98642.63;5183380;28;20221;-57
2021/09/21 02:20:52;;;;;;;12.13;11.05;;;12.80;99.90;;;13.64;81.26;98638.38;5183207;28;20207;-59
2021/09/21 02:23:26;;;;;;;13.48;12.13;;;12.80;99.90;;;13.67;82.99;98637.66;5179057;28;20201;-59
2021/09/21 02:26:00;;;;;;;14.25;12.95;;;12.80;99.90;;;13.58;83.40;98630.31;5184002;28;20203;-57
2021/09/21 02:28:33;;;;;;;14.27;12.98;;;12.80;99.90;;;13.69;82.21;98628.38;5181359;28;20583;-57
2021/09/21 02:31:07;;;;;;;12.10;11.10;;;12.90;99.90;;;13.64;82.07;98628.09;5184204;28;20297;-57
2021/09/21 02:33:40;;;;;;;11.88;10.88;;;12.80;99.90;;;13.63;83.00;98625.47;5181260;28;20230;-56
2021/09/21 02:36:13;;;;;;;12.80;11.70;;;12.70;99.90;;;13.55;82.52;98626.69;5182279;28;20286;-55
2021/09/21 02:38:46;;;;;;;12.40;11.38;;;12.70;99.90;;;13.50;81.99;98631.56;5182966;28;20231;-57
2021/09/21 02:41:21;;;;;;;13.27;12.10;;;12.70;99.90;;;13.49;82.59;98633.25;5183315;28;20201;-57
2021/09/21 02:43:54;;;;;;;12.43;11.30;;;12.70;99.90;;;13.48;80.20;98631.50;5182908;28;20190;-56
2021/09/21 02:46:27;;;;;;;13.60;12.25;;;12.60;99.90;;;13.34;80.22;98627.22;5183296;28;20209;-58
2021/09/21 02:49:00;;;;;;;12.75;11.65;;;12.60;99.90;;;13.38;80.53;98624.03;5181947;28;20205;-54
2021/09/21 02:51:34;;;;;;;12.10;11.00;;;12.60;99.90;;;13.45;80.05;98623.59;5182541;28;20209;-57
2021/09/21 02:54:07;;;;;;;13.13;11.93;;;12.60;99.90;;;13.43;80.77;98626.88;5178347;28;20222;-55
2021/09/21 02:56:41;;;;;;;12.60;11.50;;;12.50;99.90;;;13.33;82.93;98630.56;5182411;28;20645;-57
2021/09/21 02:59:14;;;;;;;13.23;12.02;;;12.50;99.90;;;13.26;82.29;98636.16;5181924;28;20198;-56
2021/09/21 03:01:47;;;;;;;12.63;11.63;;;12.50;99.90;;;13.27;82.22;98630.22;5179880;28;20657;-57
2021/09/21 03:04:24;;;;;;;11.43;10.43;;;12.50;99.90;;;13.31;82.09;98639.88;5181887;28;20195;-58
2021/09/21 03:07:03;;;;;;;13.32;12.23;;;12.50;99.90;;;13.33;81.45;98643.41;5181004;28;20320;-57
2021/09/21 03:09:51;;;;;;;12.77;11.65;;;12.60;99.90;;;13.32;80.40;98641.66;5182402;28;20302;-56
2021/09/21 03:12:31;;;;;;;14.30;13.10;;;12.50;99.90;;;13.37;80.38;98631.66;5176744;28;20197;-56
2021/09/21 03:17:56;;;;;;;14.50;13.18;;;12.50;99.90;;;13.35;80.11;98644.41;5181620;28;20229;-51
2021/09/21 03:20:30;;;;;;;13.60;12.40;;;12.50;99.90;;;13.38;80.46;98644.56;5180915;28;20194;-59
2021/09/21 03:23:03;;;;;;;12.90;11.80;;;12.60;99.90;;;13.38;80.94;98652.28;5182636;28;20208;-54
2021/09/21 03:25:36;;;;;;;13.20;12.10;;;12.60;99.90;;;13.37;80.13;98647.94;5182790;28;20297;-55
2021/09/21 03:28:11;;;;;;;12.73;11.52;;;12.60;99.90;;;13.37;81.17;98647.94;5184228;28;20237;-56
2021/09/21 03:30:44;;;;;;;12.73;11.63;;;12.50;99.90;;;13.34;80.23;98652.91;5186364;28;20194;-55
2021/09/21 03:33:17;;;;;;;13.10;11.98;;;12.50;99.90;;;13.37;81.32;98653.09;5185124;28;20194;-56
2021/09/21 03:35:50;;;;;;;14.15;12.95;;;12.50;99.90;;;13.41;81.37;98651.56;5186152;28;20222;-55
2021/09/21 03:38:23;;;;;;;13.68;12.55;;;12.60;99.90;;;13.31;82.02;98647.59;5185746;28;20249;-56
2021/09/21 03:40:56;;;;;;;13.57;12.30;;;12.50;99.90;;;13.22;82.45;98647.91;5186793;28;20199;-56
2021/09/21 03:43:31;;;;;;;13.48;12.18;;;12.50;99.90;;;13.20;81.48;98648.59;5186569;28;20191;-57
2021/09/21 03:46:04;;;;;;;13.10;11.80;;;12.30;99.90;;;13.29;81.81;98647.50;5180793;28;20194;-55
2021/09/21 03:48:37;;;;;;;13.60;12.30;;;12.40;99.90;;;13.16;81.05;98657.81;5185466;28;20601;-56
2021/09/21 03:51:10;;;;;;;13.90;12.70;;;12.30;99.90;;;13.16;81.37;98662.03;5184792;28;20298;-54
2021/09/21 03:53:45;;;;;;;14.15;12.82;;;12.30;99.90;;;13.04;81.82;98663.06;5186738;28;20729;-56
2021/09/21 03:56:18;;;;;;;13.30;12.10;;;12.30;99.90;;;13.20;81.80;98671.72;5181081;28;20230;-57
2021/09/21 03:58:53;;;;;;;13.18;12.02;;;12.40;99.90;;;13.18;81.40;98671.59;5186048;28;20234;-56
2021/09/21 04:01:26;;;;;;;13.63;12.40;;;12.40;99.90;;;13.16;81.75;98673.22;5182196;28;20213;-53
2021/09/21 04:03:59;;;;;;;13.75;12.57;;;12.40;99.90;;;13.19;82.44;98682.75;5186227;28;20213;-57
2021/09/21 04:06:33;;;;;;;13.95;12.65;;;12.40;99.90;;;13.27;81.14;98686.69;5184490;28;20301;-56
2021/09/21 04:09:06;;;;;;;13.13;11.93;;;12.50;99.90;;;13.22;82.98;98682.94;5187035;28;20575;-57
2021/09/21 04:11:40;;;;;;;13.52;12.32;;;12.50;99.90;;;13.21;82.91;98686.31;5184620;28;20194;-56
2021/09/21 04:14:14;;;;;;;12.45;11.45;;;12.50;99.90;;;13.22;82.78;98682.94;5185888;28;20202;-58
2021/09/21 04:16:47;;;;;;;13.38;12.20;;;12.40;99.90;;;13.20;82.87;98684.53;5182802;28;20609;-52
2021/09/21 04:19:20;;;;;;;12.63;11.63;;;12.40;99.90;;;13.19;83.03;98687.88;5184877;28;20548;-53
2021/09/21 04:21:54;;;;;;;13.35;12.18;;;12.40;99.90;;;13.21;83.86;98687.19;5184619;28;20213;-58
2021/09/21 04:24:27;;;;;;;12.73;11.73;;;12.40;99.90;;;13.16;83.76;98687.69;5184611;28;20305;-54
2021/09/21 04:27:00;;;;;;;13.70;12.60;;;12.30;99.90;;;13.20;84.54;98689.69;5185382;28;20222;-55
2021/09/21 04:29:35;;;;;;;13.27;12.07;;;12.40;99.90;;;13.15;83.40;98691.06;5186089;28;20195;-56
2021/09/21 04:32:08;;;;;;;13.30;12.10;;;12.40;99.90;;;13.15;83.69;98701.34;5183355;28;20202;-57
2021/09/21 04:34:41;;;;;;;12.85;11.73;;;12.30;99.90;;;13.15;83.81;98701.34;5184487;28;20254;-56
2021/09/21 04:37:14;;;;;;;11.93;11.00;;;12.30;99.90;;;13.11;83.39;98704.53;5183921;28;20608;-54
2021/09/21 04:39:47;;;;;;;13.50;12.30;;;12.20;99.90;;;13.08;82.75;98711.25;5181078;28;20209;-57
2021/09/21 04:42:22;;;;;;;13.07;11.98;;;12.20;99.90;;;13.11;82.76;98715.69;5185609;28;20711;-55
2021/09/21 04:44:56;;;;;;;13.93;12.82;;;12.20;99.90;;;13.07;83.86;98714.59;5181268;28;20202;-55
2021/09/21 04:47:29;;;;;;;13.23;12.13;;;12.20;99.90;;;13.04;83.19;98728.91;5183571;28;20300;-58
2021/09/21 04:50:02;;;;;;;13.20;12.10;;;12.30;99.90;;;13.05;83.56;98734.16;5184232;28;20654;-57
2021/09/21 04:52:35;;;;;;;13.40;12.32;;;12.20;99.90;;;13.05;83.23;98736.72;5184609;28;20580;-55
2021/09/21 04:55:10;;;;;;;13.77;12.68;;;12.30;99.90;;;13.04;83.68;98732.34;5184746;28;20265;-53
2021/09/21 04:57:43;;;;;;;14.20;13.10;;;12.30;99.90;;;13.01;83.54;98737.31;5184641;28;20223;-54
2021/09/21 05:00:18;;;;;;;13.45;12.25;;;12.20;99.90;;;13.05;83.60;98747.00;5183582;28;20714;-59
2021/09/21 05:02:51;;;;;;;13.68;12.52;;;12.20;99.90;;;13.03;83.08;98747.69;5184327;28;20733;-63
2021/09/21 05:05:26;;;;;;;14.38;13.07;;;12.10;99.90;;;13.00;83.53;98756.06;5185023;28;20218;-62
2021/09/21 05:07:59;;;;;;;12.57;11.48;;;12.20;99.90;;;13.01;83.69;98760.41;5185263;28;20227;-64
2021/09/21 05:10:32;;;;;;;13.05;11.75;;;12.20;99.90;;;13.06;83.60;98758.13;5184961;28;20209;-60
2021/09/21 05:13:05;;;;;;;13.70;12.57;;;12.30;99.90;;;13.04;82.57;98765.72;5185966;28;20270;-61
2021/09/21 05:15:40;;;;;;;14.30;13.02;;;12.20;99.90;;;13.04;83.26;98759.72;5184275;28;20681;-61
2021/09/21 05:18:13;;;;;;;14.50;13.18;;;12.30;99.90;;;13.04;82.94;98765.72;5185892;28;20305;-59
2021/09/21 05:20:46;;;;;;;14.45;13.25;;;12.30;99.90;;;13.04;82.94;98770.84;5184578;28;20698;-60
2021/09/21 05:23:19;;;;;;;13.63;12.32;;;12.30;99.90;;;13.05;82.74;98780.34;5184740;28;20199;-61
2021/09/21 05:25:52;;;;;;;13.02;11.93;;;12.30;99.90;;;13.07;81.41;98783.00;5182733;28;20202;-60
2021/09/21 05:28:25;;;;;;;14.18;12.88;;;12.30;99.90;;;13.10;81.50;98790.00;5184041;28;20214;-62
2021/09/21 05:30:59;;;;;;;13.70;12.50;;;12.40;99.90;;;13.09;81.36;98791.69;5183392;28;21003;-60
2021/09/21 05:33:32;;;;;;;13.63;12.43;;;12.40;99.90;;;13.08;81.40;98803.66;5178785;28;20198;-60
2021/09/21 05:36:06;;;;;;;13.75;12.65;;;12.40;99.90;;;13.12;80.96;98808.97;5182638;28;20728;-59
2021/09/21 05:38:39;;;;;;;13.93;12.52;;;12.40;99.90;;;13.19;81.07;98800.84;5179202;28;20221;-60
2021/09/21 05:41:12;;;;;;;16.00;14.70;;;12.40;99.90;;;13.15;79.94;98804.03;5181135;28;20203;-60
2021/09/21 05:43:45;;;;;;;15.02;13.73;;;12.50;99.90;;;13.20;80.28;98813.78;5180048;28;20297;-60
2021/09/21 05:46:20;;;;;;;14.63;13.23;;;12.50;99.90;;;13.14;79.91;98817.66;5183771;28;20293;-60
2021/09/21 05:48:59;;;;;;;13.52;12.32;;;12.40;99.90;;;13.19;79.34;98814.59;5183291;28;20927;-60
2021/09/21 05:51:32;;;;;;;13.13;11.98;;;12.50;99.90;;;13.26;79.82;98810.75;5182319;28;20202;-60
2021/09/21 05:54:05;;;;;;;13.13;12.00;;;12.50;99.90;;;13.34;80.39;98817.25;5182251;28;20203;-61
2021/09/21 05:56:38;;;;;;;14.40;13.20;;;12.60;99.90;;;13.32;78.98;98815.38;5176464;28;20223;-60
2021/09/21 05:59:11;;;;;;;12.82;11.77;;;12.50;99.90;;;13.38;79.16;98819.19;5177112;28;20588;-60
2021/09/21 06:01:47;;;;;;;13.15;11.85;;;12.60;99.90;;;13.42;79.14;98813.47;5180217;28;20203;-61
2021/09/21 06:04:20;;;;;;;13.35;12.32;;;12.60;99.90;;;13.51;78.03;98816.59;5182782;28;20561;-60
2021/09/21 06:06:53;;;;;;;14.18;12.95;;;12.60;99.90;;;13.46;77.05;98811.97;5176607;28;20234;-60
2021/09/21 06:09:26;;;;;;;12.75;11.65;;;12.60;99.90;;;13.55;76.75;98812.53;5179245;28;20201;-59
2021/09/21 06:11:59;;;;;;;13.65;12.45;;;12.70;99.90;;;13.59;76.00;98800.75;5177906;28;20207;-61
2021/09/21 06:14:32;;;;;;;13.52;12.32;;;12.70;99.90;;;13.66;75.47;98806.34;5187161;28;20198;-61
2021/09/21 06:17:07;;;;;;;12.68;11.57;;;12.70;99.90;;;13.90;75.60;98806.91;5179651;28;20219;-60
2021/09/21 06:19:40;;;;;;;13.02;11.93;;;12.80;99.90;;;14.26;72.99;98807.31;5181616;28;20273;-61
2021/09/21 06:22:13;;;;;;;12.90;11.60;;;13.00;99.90;;;14.49;73.17;98810.31;5180549;28;20211;-59
2021/09/21 06:24:46;;;;;;;13.00;11.73;;;13.40;99.90;;;14.90;71.66;98814.34;5181740;28;20603;-61
2021/09/21 06:27:19;;;;;;;13.30;12.15;;;13.70;99.90;;;15.04;70.25;98819.44;5181737;28;20615;-61
2021/09/21 06:29:53;;;;;;;12.93;11.88;;;13.90;99.90;;;15.44;68.77;98820.72;5182463;28;20205;-60
2021/09/21 06:32:27;;;;;;;11.60;10.63;;;14.20;99.90;;;15.85;66.91;98815.22;5182401;28;20201;-59
2021/09/21 06:35:00;;;;;;;12.38;11.18;;;14.40;99.90;;;16.18;65.64;98810.88;5181353;28;20221;-60
2021/09/21 06:37:33;;;;;;;12.27;11.18;;;14.60;99.90;;;16.57;64.98;98820.53;5178455;28;20568;-61
2021/09/21 06:40:09;;;;;;;10.77;9.88;;;15.00;99.90;;;16.91;62.29;98820.47;5180724;28;20202;-61
2021/09/21 06:42:42;;;;;;;12.45;11.35;;;15.20;99.90;;;17.39;61.42;98826.16;5181334;28;20336;-60
2021/09/21 06:45:17;;;;;;;12.50;11.40;;;15.30;99.90;;;17.65;60.42;98836.81;5180078;28;20201;-61
2021/09/21 06:47:51;;;;;;;11.05;10.15;;;15.50;99.90;;;17.76;58.83;98845.94;5180046;28;20222;-61
2021/09/21 06:50:24;;;;;;;10.30;9.50;;;15.70;99.90;;;18.18;56.80;98844.38;5181755;28;20290;-61
2021/09/21 06:52:58;;;;;;;9.93;9.13;;;15.90;99.90;;;18.43;56.00;98843.72;5181670;28;20207;-61
2021/09/21 06:55:31;;;;;;;10.35;9.55;;;16.20;99.90;;;18.73;54.38;98850.97;5181206;28;20198;-61
2021/09/21 06:58:04;;;;;;;10.05;9.13;;;16.50;99.90;;;18.68;53.61;98865.44;5181203;28;20245;-61
2021/09/21 07:00:38;;;;;;;9.85;9.15;;;16.60;99.90;;;18.39;53.20;98862.50;5180848;28;20296;-59
2021/09/21 07:03:13;;;;;;;9.05;8.35;;;16.60;99.90;;;18.17;54.06;98867.56;5181720;28;20681;-62
2021/09/21 07:05:47;;;;;;;9.88;9.07;;;16.50;99.90;;;17.99;55.76;98870.25;5182114;28;20209;-62
2021/09/21 07:08:20;;;;;;;10.30;9.40;;;16.50;99.90;;;18.37;55.40;98863.25;5180522;28;20612;-62
2021/09/21 07:10:53;;;;;;;9.10;8.40;;;16.90;99.90;;;18.40;54.32;98864.28;5182127;28;20301;-62
2021/09/21 07:13:26;;;;;;;8.85;8.15;;;16.80;99.90;;;18.60;53.33;98862.53;5180795;28;20211;-62
2021/09/21 07:15:59;;;;;;;9.00;8.18;;;17.10;99.90;;;18.50;52.57;98864.69;5181490;28;20226;-61
2021/09/21 07:18:33;;;;;;;9.27;8.52;;;17.10;99.90;;;18.49;51.50;98866.38;5180466;28;20344;-62
2021/09/21 07:21:07;;;;;;;9.25;8.55;;;17.20;99.90;;;18.39;51.62;98883.22;5181270;28;20752;-62
2021/09/21 07:23:40;;;;;;;9.10;8.40;;;17.20;99.90;;;18.40;52.25;98879.81;5179944;28;20499;-62
2021/09/21 07:26:13;;;;;;;8.35;7.75;;;17.30;99.90;;;18.60;52.71;98882.34;5174418;28;20190;-61
2021/09/21 07:28:46;;;;;;;8.70;8.00;;;17.50;99.90;;;18.74;49.02;98893.31;5180173;28;20218;-62
2021/09/21 07:31:19;;;;;;;8.27;7.68;;;17.70;98.50;;;18.84;50.21;98892.91;5176562;28;20205;-60
2021/09/21 07:33:54;;;;;;;8.38;7.68;;;17.70;99.30;;;18.93;47.71;98892.38;5180184;28;20234;-61
2021/09/21 07:36:27;;;;;;;8.73;7.93;;;17.90;97.00;;;18.97;48.40;98897.75;5179947;28;20800;-62
2021/09/21 07:39:00;;;;;;;8.38;7.57;;;17.90;97.60;;;18.92;47.88;98895.81;5179882;28;20720;-62
2021/09/21 07:41:33;;;;;;;8.65;7.95;;;18.00;97.00;;;18.76;47.18;98887.38;5179598;28;20290;-62
2021/09/21 07:44:06;;;;;;;8.00;7.40;;;17.80;96.30;;;18.74;46.71;98885.56;5181461;28;20704;-62
2021/09/21 07:46:39;;;;;;;8.25;7.55;;;17.90;95.80;;;18.66;45.16;98893.00;5180551;28;20225;-59
2021/09/21 07:49:14;;;;;;;8.10;7.50;;;17.80;94.60;;;18.64;45.83;98895.50;5181483;28;20229;-61
2021/09/21 07:51:48;;;;;;;7.70;7.20;;;17.90;94.90;;;18.66;42.83;98904.22;5180879;28;20202;-61
2021/09/21 07:54:21;;;;;;;8.07;7.47;;;18.00;92.70;;;18.72;44.86;98905.31;5180636;28;20198;-61
2021/09/21 07:56:54;;;;;;;7.13;6.63;;;18.00;93.80;;;18.95;44.36;98904.59;5174155;28;20230;-62
2021/09/21 07:59:27;;;;;;;6.93;6.32;;;18.20;93.70;;;19.07;44.59;98906.78;5182014;28;20298;-62
2021/09/21 08:02:02;;;;;;;7.07;6.47;;;18.30;93.80;;;18.90;43.95;98904.38;5195120;28;20211;-60
2021/09/21 08:04:38;;;;;;;6.85;6.35;;;18.10;93.10;;;19.04;45.08;98912.72;5196576;28;20201;-62
2021/09/21 08:07:11;;;;;;;7.55;6.88;;;18.20;94.30;;;18.77;42.79;98907.31;5195692;28;20234;-62
2021/09/21 08:09:45;;;;;;;7.63;7.03;;;18.10;92.20;;;18.86;43.12;98907.69;5194718;28;20285;-62
2021/09/21 08:12:19;;;;;;;6.93;6.38;;;18.10;91.80;;;18.77;42.61;98911.56;5195039;28;20613;-62
2021/09/21 08:14:53;;;;;;;6.60;6.20;;;17.90;92.40;;;18.99;43.53;98918.53;5196445;28;20218;-62
2021/09/21 08:17:28;;;;;;;7.68;7.05;;;18.10;92.80;;;19.25;43.33;98911.81;5200458;28;20230;-60
2021/09/21 08:20:05;;;;;;;7.65;6.95;;;18.50;92.40;;;19.45;42.67;98920.38;5198961;28;20229;-62
2021/09/21 08:22:38;;;;;;;7.32;6.82;;;18.70;92.00;;;19.44;43.64;98924.69;5198773;28;20191;-61
2021/09/21 08:25:12;;;;;;;7.00;6.50;;;18.70;92.70;;;19.52;43.88;98927.59;5192330;28;20226;-62
2021/09/21 08:27:46;;;;;;;7.55;6.97;;;18.80;92.70;;;19.58;42.95;98933.88;5198192;28;20218;-61
2021/09/21 08:30:33;;;;;;;7.15;6.55;;;19.00;92.20;;;19.73;42.91;98935.34;5194398;28;20199;-61
2021/09/21 08:33:06;;;;;;;7.03;6.53;;;19.10;92.20;;;19.92;41.84;98942.13;5191820;28;20195;-61
2021/09/21 08:35:41;;;;;;;6.97;6.57;;;19.30;91.40;;;19.90;41.02;98948.94;5191943;28;20199;-63
2021/09/21 08:38:14;;;;;;;7.07;6.57;;;19.10;90.60;;;19.85;41.40;98948.75;5192577;28;20226;-62
2021/09/21 08:40:47;;;;;;;6.60;6.15;;;18.90;90.80;;;19.66;40.85;98947.19;5191443;28;20262;-62
2021/09/21 08:43:20;;;;;;;7.07;6.47;;;18.90;90.50;;;19.55;42.19;98943.25;5189587;28;20313;-62
2021/09/21 08:45:53;;;;;;;6.22;5.78;;;18.70;91.50;;;19.21;41.50;98947.09;5190238;28;20332;-61
2021/09/21 08:48:27;;;;;;;7.47;6.88;;;18.50;90.60;;;19.27;41.45;98941.28;5190560;28;20219;-62
2021/09/21 08:51:01;;;;;;;7.00;6.50;;;18.60;90.60;;;19.32;41.80;98939.75;5189712;28;20293;-63
2021/09/21 08:53:34;;;;;;;6.45;5.95;;;18.70;90.80;;;19.55;42.50;98943.25;5191732;28;20273;-63
2021/09/21 08:56:08;;;;;;;6.38;5.88;;;18.90;91.80;;;19.40;42.40;98937.44;5190741;28;20214;-61
2021/09/21 08:58:41;;;;;;;6.47;6.00;;;18.80;91.20;;;19.24;42.18;98944.63;5191441;28;20311;-63
2021/09/21 09:01:16;;;;;;;6.50;6.05;;;18.60;91.10;;;19.63;41.64;98943.53;5192335;28;20667;-62
2021/09/21 09:03:54;;;;;;;6.22;5.82;;;19.00;90.40;;;19.19;42.50;98948.75;5191472;28;20203;-62
2021/09/21 09:06:29;;;;;;;5.90;5.50;;;18.60;91.10;;;19.57;43.01;98957.16;5187654;28;20598;-63
2021/09/21 09:09:12;;;;;;;6.88;6.38;;;19.00;91.70;;;19.78;42.44;98968.41;5192480;28;20193;-62
2021/09/21 09:11:48;;;;;;;6.80;6.30;;;19.30;91.00;;;20.04;41.63;98963.31;5192192;28;20210;-62
2021/09/21 09:14:24;;;;;;;6.60;6.10;;;19.60;90.40;;;20.15;40.94;98959.41;5190666;28;20221;-62
2021/09/21 09:17:00;;;;;;;6.47;6.07;;;19.60;90.40;;;19.69;41.00;98973.25;5188838;28;20305;-61
2021/09/21 09:19:37;;;;;;;6.85;6.30;;;19.00;90.10;;;19.45;41.80;98973.13;5188615;28;20186;-63
2021/09/21 09:22:15;;;;;;;5.80;5.40;;;18.60;90.70;;;19.41;43.60;98971.25;5184391;28;20233;-62
2021/09/21 09:24:52;;;;;;;6.95;6.45;;;18.60;91.90;;;19.31;42.68;98969.97;5189991;28;20206;-63
2021/09/21 09:27:38;;;;;;;6.18;5.78;;;18.40;91.50;;;19.31;43.06;98971.69;5187981;28;20309;-62
2021/09/21 09:30:14;;;;;;;6.88;6.38;;;18.50;91.60;;;19.53;42.50;98963.06;5190810;28;20270;-62
2021/09/21 09:32:50;;;;;;;6.50;6.00;;;18.80;91.20;;;19.60;41.97;98967.66;5189672;28;20190;-62
2021/09/21 09:35:26;;;;;;;6.88;6.38;;;18.70;91.20;;;19.78;43.50;98965.81;5190799;28;20281;-63
2021/09/21 09:38:03;;;;;;;7.28;6.68;;;18.90;92.00;;;19.70;42.04;98974.13;5188430;28;20290;-62
2021/09/21 09:40:41;;;;;;;6.55;5.93;;;18.80;90.60;;;19.93;41.28;98978.47;5192659;28;20221;-61
2021/09/21 09:43:15;;;;;;;6.70;6.20;;;18.90;90.60;;;19.74;40.72;98974.31;5188537;28;20199;-63
2021/09/21 09:45:51;;;;;;;6.32;5.90;;;18.80;90.20;;;19.89;42.59;98976.63;5190233;28;20230;-63
2021/09/21 09:48:26;;;;;;;6.63;6.13;;;18.90;92.10;;;19.98;41.42;98981.28;5187508;28;20229;-63
2021/09/21 09:50:59;;;;;;;6.38;5.88;;;18.90;90.70;;;19.74;41.71;98978.59;5188327;28;20232;-60
2021/09/21 09:53:35;;;;;;;6.50;6.10;;;18.80;91.10;;;19.67;41.04;98974.00;5187344;28;20289;-62
2021/09/21 09:56:08;;;;;;;6.47;5.97;;;19.00;90.10;;;19.83;41.38;98980.66;5188380;28;20460;-62
2021/09/21 09:58:41;;;;;;;6.80;6.25;;;19.10;90.40;;;20.06;40.37;98979.84;5188839;28;20230;-61
2021/09/21 10:01:14;;;;;;;6.78;6.28;;;19.00;89.90;;;20.16;40.48;98976.75;5188778;28;20209;-62
2021/09/21 10:03:48;;;;;;;6.07;5.57;;;19.20;89.40;;;19.99;40.92;98988.22;5188161;28;20203;-63
2021/09/21 10:06:21;;;;;;;6.85;6.25;;;19.00;90.00;;;20.29;39.91;98978.09;5189602;28;20217;-62
2021/09/21 10:08:56;;;;;;;7.18;6.57;;;19.40;89.10;;;20.16;41.03;98981.94;5191229;28;20262;-63
2021/09/21 10:11:33;;;;;;;6.88;6.40;;;19.50;89.20;;;19.93;40.80;98994.06;5190964;28;20289;-63
2021/09/21 10:14:07;;;;;;;6.32;5.82;;;19.30;89.70;;;19.93;40.15;98993.19;5189873;28;20504;-62
2021/09/21 10:16:50;;;;;;;6.38;5.90;;;19.30;88.70;;;20.10;41.12;98994.69;5190064;28;20326;-61
2021/09/21 10:19:26;;;;;;;6.40;6.00;;;19.20;90.00;;;20.05;42.27;98998.81;5187746;28;20222;-61
2021/09/21 10:21:59;;;;;;;6.20;5.80;;;19.30;90.90;;;19.86;42.16;98992.06;5187143;28;20202;-62
2021/09/21 10:24:39;;;;;;;6.45;5.95;;;19.10;90.80;;;19.92;41.52;98991.41;5191604;28;20285;-62
2021/09/21 10:27:14;;;;;;;6.43;5.93;;;19.10;90.50;;;20.18;42.15;98980.28;5187472;28;20218;-63
2021/09/21 10:29:59;;;;;;;6.53;6.13;;;19.30;91.20;;;20.33;42.27;98979.97;5192758;28;20206;-61
2021/09/21 10:32:41;;;;;;;6.75;6.35;;;19.40;90.70;;;20.18;42.23;98982.00;5192634;28;20267;-63
2021/09/21 10:35:17;;;;;;;6.57;6.07;;;19.30;91.20;;;20.06;42.70;98984.13;5191907;28;20222;-61
2021/09/21 10:38:02;;;;;;;6.55;6.05;;;19.30;91.10;;;20.04;42.04;98986.69;5189178;28;20744;-62
2021/09/21 10:40:44;;;;;;;7.10;6.60;;;19.30;91.20;;;20.06;42.99;98987.63;5186421;28;20261;-63
2021/09/21 10:43:28;;;;;;;6.80;6.30;;;19.30;91.30;;;19.93;42.78;98982.78;5190270;28;20285;-63
2021/09/21 10:46:10;;;;;;;6.95;6.45;;;19.40;90.90;;;19.96;42.86;98985.50;5188554;28;20245;-63